TNCE METAR and TAF | Updated Today

TNCE METAR

F. D. Roosevelt Airport

Observation time: 35 min. ago

TNCE 251955Z AUTO 06014KT //// // ///////// 28/23 Q1015 RE//

Need help? Read our tutorial on how to read METARs or read the parsed version below.

F. D. Roosevelt Airport (TNCE) METAR

  • Weather conditions on Wed, 25 May 2022 19:55:00 +0000 (35 min. ago):
  • Present conditions: Dry
  • Clouds: Clear skies
  • Visibility:
  • Wind: 60 degrees at 14 knots
  • Temperature: 28 celsius
  • Dew point: 23 celsius
  • Pressure: 1015 millibars
  • Remarks: None


Useful to know...